CDT,Max TemperatureF,Mean TemperatureF,Min TemperatureF,Max Dew PointF,MeanDew PointF,Min DewpointF,Max Humidity, Mean Humidity, Min Humidity, Max Sea Level PressureIn, Mean Sea Level PressureIn, Min Sea Level PressureIn, Max VisibilityMiles, Mean VisibilityMiles, Min VisibilityMiles, Max Wind SpeedMPH, Mean Wind SpeedMPH, Max Gust SpeedMPH,PrecipitationIn, CloudCover, Events, WindDirDegrees
2012-9-1,74,70,66,68,63,56,93,73,53,30.07,30.03,29.96,10,8,1,18,10,26,0.59,4,Rain,38
2012-9-2,78,74,69,69,67,64,90,76,62,29.96,29.92,29.88,10,10,10,16,9,21,0.00,5,,48
2012-9-3,81,74,67,70,69,66,100,85,69,29.94,29.90,29.85,10,7,1,9,3,12,0.00,0,,60
2012-9-4,84,74,64,73,69,59,97,83,69,29.93,29.87,29.81,10,7,1,23,6,38,0.92,4,Rain-Thunderstorm,62
2012-9-5,86,74,62,70,64,61,100,78,55,29.96,29.79,29.72,10,8,2,20,3,24,0.01,3,Rain,235
2012-9-6,83,73,62,67,63,50,100,67,33,29.92,29.87,29.80,10,8,2,12,4,15,0.00,0,,306
2012-9-7,77,67,56,66,60,55,100,78,56,29.91,29.83,29.75,10,8,2,23,5,29,0.09,3,Rain,338
2012-9-8,71,61,51,55,50,46,93,69,44,29.90,29.84,29.81,10,9,2,15,6,23,0.36,2,Rain,298
2012-9-9,70,60,49,54,51,46,100,72,44,30.14,30.01,29.86,10,9,7,15,6,22,0.01,1,,331
2012-9-10,72,60,48,58,51,47,100,74,47,30.21,30.14,30.07,10,10,9,17,6,21,0.00,0,,171
2012-9-11,83,69,55,57,53,48,77,57,37,30.12,30.07,30.01,10,10,10,26,13,31,0.00,0,,200
2012-9-12,86,74,62,61,57,55,78,58,37,30.12,30.08,30.03,10,10,10,18,9,23,0.00,0,,200
2012-9-13,67,60,52,55,50,47,93,77,60,30.33,30.26,30.14,10,8,2,13,5,20,0.20,6,Rain,333
2012-9-14,74,61,48,52,48,43,100,68,35,30.34,30.30,30.25,10,8,2,12,4,17,0.00,0,,275
2012-9-15,73,60,47,56,51,46,100,72,44,30.30,30.21,30.11,10,9,5,12,5,15,0.00,0,,175
2012-9-16,76,65,54,52,48,42,77,54,31,30.10,30.03,29.95,10,10,10,17,4,22,0.00,0,,215
2012-9-17,78,66,54,61,55,48,93,71,48,29.94,29.81,29.71,10,9,3,18,7,30,0.13,4,Rain-Thunderstorm,252
2012-9-18,61,51,40,50,41,32,93,64,35,30.03,29.89,29.79,10,10,10,15,7,24,T,3,,315
2012-9-19,73,54,34,49,40,35,100,65,29,30.06,29.91,29.77,10,10,5,32,14,41,0.09,3,Rain-Thunderstorm,198
2012-9-20,69,58,46,49,40,33,86,57,27,29.92,29.86,29.79,10,10,10,14,5,21,0.00,0,,247
2012-9-21,56,51,45,50,45,37,93,76,59,29.93,29.87,29.79,10,8,2,12,4,17,0.30,6,Rain,228
2012-9-22,59,51,43,48,42,36,93,72,51,30.17,29.94,29.79,10,10,6,22,7,35,0.01,4,Rain,283
2012-9-23,59,48,36,38,34,28,92,63,33,30.26,30.23,30.17,10,10,10,13,4,20,0.00,1,,281
2012-9-24,69,52,35,38,34,30,92,59,26,30.22,30.04,29.87,10,10,10,24,10,30,0.00,0,,219
2012-9-25,76,63,50,57,49,39,93,66,38,29.87,29.83,29.78,10,10,8,15,7,18,0.00,0,,197
2012-9-26,63,54,44,55,49,41,100,78,55,30.17,30.01,29.87,10,8,2,17,7,24,0.00,0,,6
2012-9-27,62,52,41,50,45,39,89,75,60,30.21,30.19,30.16,10,10,10,16,7,25,0.00,5,,339
2012-9-28,64,54,44,51,48,46,93,77,60,30.19,30.15,30.11,10,10,8,20,6,25,0.00,1,,359
2012-9-29,76,61,46,54,46,41,93,61,29,30.11,30.04,29.97,10,9,7,16,5,21,0.00,0,,289
2012-9-30,63,53,42,52,46,41,100,74,48,30.01,29.98,29.95,10,10,7,16,6,22,0.01,1,,1